Time;durP1;ratioP1;P1;durP2;ratioP2;P2;SDS_P1;SDS_P2;PMS_P1;PMS_P2;Temp;Humidity;BMP_temperature;BMP_pressure;BME280_temperature;BME280_humidity;BME280_pressure;Samples;Min_cycle;Max_cycle;Signal;HPM_P1;HPM_P2
2022/03/28 00:00:40;;;;;;;21.30;8.80;;;;;;;11.33;63.94;102621.38;5061282;28;20041;-53
2022/03/28 00:03:10;;;;;;;22.35;8.23;;;;;;;11.30;63.81;102617.22;5068199;28;20037;-54
2022/03/28 00:05:39;;;;;;;21.83;8.40;;;;;;;11.29;63.97;102611.97;5061407;28;20510;-49
2022/03/28 00:08:07;;;;;;;22.08;8.50;;;;;;;11.24;64.03;102612.66;5056899;28;20051;-53
2022/03/28 00:10:34;;;;;;;25.33;8.75;;;;;;;11.21;64.12;102610.38;5055329;28;20072;-56
2022/03/28 00:13:03;;;;;;;23.85;9.60;;;;;;;11.20;64.21;102607.88;5047966;28;20399;-49
2022/03/28 00:15:31;;;;;;;22.67;8.43;;;;;;;11.19;63.57;102606.22;5056236;28;20404;-51
2022/03/28 00:17:58;;;;;;;22.92;8.52;;;;;;;11.15;64.10;102599.56;5055250;28;20040;-49
2022/03/28 00:20:27;;;;;;;23.67;8.68;;;;;;;11.11;63.35;102601.06;5055110;28;20045;-53
2022/03/28 00:22:54;;;;;;;22.42;8.48;;;;;;;11.02;64.16;102598.66;5044610;28;20084;-49
2022/03/28 00:25:22;;;;;;;24.48;8.45;;;;;;;10.95;64.26;102581.53;5035205;28;20036;-49
2022/03/28 00:27:50;;;;;;;23.50;9.18;;;;;;;10.88;64.68;102587.03;5034748;28;20381;-48
2022/03/28 00:30:17;;;;;;;24.25;9.43;;;;;;;10.81;65.31;102574.53;5033955;28;20080;-49
2022/03/28 00:32:45;;;;;;;28.25;9.02;;;;;;;10.64;66.44;102574.31;5039277;28;20045;-50
2022/03/28 00:35:13;;;;;;;29.10;9.18;;;;;;;10.49;66.80;102571.94;5050432;28;20048;-50
2022/03/28 00:37:41;;;;;;;22.52;8.27;;;;;;;10.40;67.74;102570.56;5054877;28;20044;-50
2022/03/28 00:40:12;;;;;;;25.08;8.65;;;;;;;10.34;68.21;102572.28;5054867;28;20045;-50
2022/03/28 00:42:41;;;;;;;23.48;8.48;;;;;;;10.34;68.28;102568.72;5051625;28;20072;-51
2022/03/28 00:45:10;;;;;;;26.92;9.23;;;;;;;10.38;68.27;102559.88;5053842;28;20052;-50
2022/03/28 00:47:37;;;;;;;22.65;8.93;;;;;;;10.38;68.44;102559.03;5052936;28;20076;-49
2022/03/28 00:50:06;;;;;;;27.17;8.25;;;;;;;10.37;68.36;102555.50;5054617;28;20051;-51
2022/03/28 00:52:34;;;;;;;22.30;8.40;;;;;;;10.33;68.73;102551.53;5047199;28;20381;-50
2022/03/28 00:55:03;;;;;;;26.55;8.82;;;;;;;10.10;69.64;102543.97;5041765;28;20036;-51
2022/03/28 00:57:31;;;;;;;23.77;9.15;;;;;;;9.96;70.28;102539.69;5054187;28;20033;-51
2022/03/28 00:59:59;;;;;;;22.65;7.95;;;;;;;9.81;71.41;102540.84;5052975;28;20049;-47
2022/03/28 01:02:27;;;;;;;27.45;8.77;;;;;;;9.78;71.94;102538.53;5052390;28;20041;-50
2022/03/28 01:04:56;;;;;;;21.90;8.18;;;;;;;9.80;71.94;102539.16;5032861;28;20569;-50
2022/03/28 01:07:25;;;;;;;23.70;8.38;;;;;;;9.84;72.04;102539.56;5035565;28;20052;-49
2022/03/28 01:09:55;;;;;;;26.45;8.30;;;;;;;9.86;71.83;102528.44;5033272;28;20041;-51
2022/03/28 01:12:25;;;;;;;21.15;8.13;;;;;;;9.84;72.06;102535.97;5019215;28;20045;-49
2022/03/28 01:14:54;;;;;;;23.77;7.72;;;;;;;9.68;72.79;102527.31;5024940;28;20376;-52
2022/03/28 01:20:09;;;;;;;;;;;;;;;9.75;72.77;102528.09;5053355;28;20139;-48
2022/03/28 01:22:37;;;;;;;24.73;8.02;;;;;;;9.70;72.84;102525.22;5048867;28;20288;-50
2022/03/28 01:25:06;;;;;;;22.60;8.73;;;;;;;9.73;72.96;102524.75;5049816;28;20120;-48
2022/03/28 01:27:37;;;;;;;22.35;8.35;;;;;;;9.62;73.37;102530.06;5052737;28;20045;-48
2022/03/28 01:30:06;;;;;;;17.25;7.82;;;;;;;9.52;73.48;102527.84;5053962;28;20052;-48
2022/03/28 01:32:33;;;;;;;24.35;9.10;;;;;;;9.49;73.82;102522.84;5042748;28;20057;-50
2022/03/28 01:35:01;;;;;;;20.90;8.38;;;;;;;9.53;73.62;102513.19;5034059;28;20049;-53
2022/03/28 01:37:28;;;;;;;22.88;8.15;;;;;;;9.52;73.70;102514.22;5033809;28;20506;-50
2022/03/28 01:39:56;;;;;;;25.23;9.07;;;;;;;9.46;74.06;102507.78;5033899;28;20077;-51
2022/03/28 01:42:24;;;;;;;23.40;7.63;;;;;;;9.36;74.74;102504.72;5037947;28;20047;-50
2022/03/28 01:44:52;;;;;;;22.88;8.57;;;;;;;9.36;74.31;102502.81;5053511;28;20045;-50
2022/03/28 01:47:19;;;;;;;25.63;8.18;;;;;;;9.34;74.41;102504.91;5052357;28;20048;-49
2022/03/28 01:49:47;;;;;;;22.10;7.70;;;;;;;9.34;74.76;102495.94;5053533;28;20513;-49
2022/03/28 01:52:14;;;;;;;21.35;7.70;;;;;;;9.23;75.46;102497.44;5044279;28;20047;-51
2022/03/28 01:54:42;;;;;;;18.85;7.22;;;;;;;9.20;75.42;102497.88;5043715;28;20045;-50
2022/03/28 01:57:10;;;;;;;26.05;9.07;;;;;;;9.26;74.84;102501.63;5029262;28;20042;-53
2022/03/28 01:59:38;;;;;;;24.15;8.38;;;;;;;9.20;75.20;102492.44;5033821;28;20065;-51
2022/03/28 02:02:05;;;;;;;21.08;7.75;;;;;;;9.17;75.82;102487.47;5034690;28;20100;-53
2022/03/28 02:04:33;;;;;;;24.65;8.73;;;;;;;9.12;75.85;102487.28;5033628;28;20484;-51
2022/03/28 02:07:01;;;;;;;25.13;8.40;;;;;;;9.07;76.25;102489.81;5034722;28;20041;-49
2022/03/28 02:09:28;;;;;;;21.35;7.55;;;;;;;9.07;76.59;102482.50;5053091;28;20064;-49
2022/03/28 02:11:56;;;;;;;23.15;7.80;;;;;;;9.08;76.31;102480.59;5044084;28;20052;-48
2022/03/28 02:14:23;;;;;;;27.33;8.75;;;;;;;9.15;75.89;102484.13;5046206;28;20048;-49
2022/03/28 02:16:51;;;;;;;25.90;8.60;;;;;;;9.15;76.27;102473.25;5053208;28;20115;-51
2022/03/28 02:19:19;;;;;;;26.70;7.97;;;;;;;9.07;76.42;102478.94;5051853;28;20048;-52
2022/03/28 02:21:47;;;;;;;27.08;8.73;;;;;;;9.04;76.69;102482.06;5034444;28;20033;-49
2022/03/28 02:24:15;;;;;;;20.95;8.50;;;;;;;9.01;77.18;102477.91;5033309;28;20095;-49
2022/03/28 02:26:42;;;;;;;24.08;7.65;;;;;;;9.00;76.88;102475.41;5036900;28;20502;-48
2022/03/28 02:29:10;;;;;;;18.33;7.30;;;;;;;9.07;76.54;102474.31;5033147;28;20050;-49
2022/03/28 02:31:37;;;;;;;22.92;8.68;;;;;;;9.01;76.60;102471.63;5032809;28;20056;-49
2022/03/28 02:34:05;;;;;;;26.00;9.23;;;;;;;8.96;77.54;102464.97;5052517;28;20047;-50
2022/03/28 02:36:33;;;;;;;23.23;8.27;;;;;;;9.05;77.36;102467.44;5052982;28;20380;-50
2022/03/28 02:39:00;;;;;;;23.30;8.05;;;;;;;9.11;76.65;102459.22;5051039;28;20051;-51
2022/03/28 02:41:28;;;;;;;22.13;8.57;;;;;;;9.12;76.97;102463.63;5049464;28;20041;-48
2022/03/28 02:43:56;;;;;;;26.75;8.27;;;;;;;9.08;76.41;102456.94;5031794;28;20108;-47
2022/03/28 02:46:24;;;;;;;23.67;8.00;;;;;;;9.02;76.44;102446.09;5034727;28;20042;-46
2022/03/28 02:48:52;;;;;;;25.20;8.05;;;;;;;8.89;77.77;102456.00;5031890;28;20484;-49
2022/03/28 02:51:19;;;;;;;24.25;7.97;;;;;;;8.85;78.70;102449.34;5040751;28;20068;-48
2022/03/28 02:53:47;;;;;;;26.17;8.32;;;;;;;8.89;78.20;102445.13;5052756;28;20068;-47
2022/03/28 02:56:14;;;;;;;24.20;8.43;;;;;;;8.94;77.74;102445.31;5052935;28;20054;-50
2022/03/28 02:58:42;;;;;;;22.75;7.70;;;;;;;9.03;77.93;102440.47;5036125;28;20072;-50
2022/03/28 03:01:09;;;;;;;24.25;8.18;;;;;;;9.10;77.12;102443.97;5034000;28;20037;-51
2022/03/28 03:03:37;;;;;;;23.27;8.43;;;;;;;9.11;77.23;102442.09;5031834;28;20508;-52
2022/03/28 03:06:05;;;;;;;23.98;8.40;;;;;;;9.09;76.74;102436.88;5032650;28;20054;-49
2022/03/28 03:08:33;;;;;;;23.90;8.10;;;;;;;9.05;77.25;102435.66;5032493;28;20045;-49
2022/03/28 03:11:00;;;;;;;24.33;7.97;;;;;;;9.07;76.60;102438.16;5039007;28;20051;-49
2022/03/28 03:13:28;;;;;;;24.27;8.00;;;;;;;9.03;77.45;102431.47;5036326;28;20049;-49
2022/03/28 03:15:55;;;;;;;23.70;8.20;;;;;;;8.99;77.22;102431.06;5036520;28;20496;-50
2022/03/28 03:18:27;;;;;;;22.38;7.93;;;;;;;8.85;77.81;102429.47;5036744;28;20571;-50
2022/03/28 03:20:55;;;;;;;24.83;7.90;;;;;;;8.68;78.84;102429.13;5039004;28;20044;-50
2022/03/28 03:23:23;;;;;;;23.63;7.85;;;;;;;8.70;77.93;102424.31;5037298;28;20048;-55
2022/03/28 03:25:50;;;;;;;25.55;8.48;;;;;;;8.62;79.39;102416.41;5049270;28;20049;-54
2022/03/28 03:28:20;;;;;;;22.52;7.70;;;;;;;8.50;80.02;102417.09;5048702;28;20046;-53
2022/03/28 03:30:48;;;;;;;21.83;7.80;;;;;;;8.52;80.14;102414.16;5041762;28;20033;-55
2022/03/28 03:33:16;;;;;;;23.83;8.00;;;;;;;8.55;80.37;102418.34;5045215;28;20060;-55
2022/03/28 03:35:43;;;;;;;23.33;7.78;;;;;;;8.58;79.97;102415.19;5046552;28;20037;-50
2022/03/28 03:38:11;;;;;;;26.70;8.02;;;;;;;8.46;80.50;102410.41;5055759;28;20502;-50
2022/03/28 03:40:38;;;;;;;26.08;7.82;;;;;;;8.48;80.17;102413.75;5041969;28;20053;-51
2022/03/28 03:43:07;;;;;;;28.77;8.68;;;;;;;8.47;80.20;102412.09;5036012;28;20046;-50
2022/03/28 03:45:35;;;;;;;27.85;8.18;;;;;;;8.48;79.99;102416.47;5034111;28;20042;-51
2022/03/28 03:48:03;;;;;;;21.75;7.63;;;;;;;8.50;79.87;102411.66;5035290;28;20064;-50
2022/03/28 03:50:30;;;;;;;26.77;8.20;;;;;;;8.49;79.74;102406.41;5035775;28;20053;-49
2022/03/28 03:52:58;;;;;;;22.55;7.38;;;;;;;8.41;81.04;102412.94;5035682;28;20045;-52
2022/03/28 03:55:26;;;;;;;24.25;8.32;;;;;;;8.45;80.27;102397.88;5053970;28;20499;-51
2022/03/28 03:57:53;;;;;;;28.13;7.57;;;;;;;8.45;80.58;102394.34;5055417;28;20411;-51
2022/03/28 04:00:22;;;;;;;25.08;7.95;;;;;;;8.45;80.27;102397.06;5054355;28;20072;-49
2022/03/28 04:02:53;;;;;;;22.88;7.38;;;;;;;8.45;80.55;102395.16;5049029;28;20052;-48
2022/03/28 04:05:21;;;;;;;23.35;7.65;;;;;;;8.46;80.13;102396.81;5052202;28;20175;-48
2022/03/28 04:07:48;;;;;;;22.70;8.00;;;;;;;8.49;80.56;102390.97;5055244;28;20037;-49
2022/03/28 04:10:16;;;;;;;24.35;7.85;;;;;;;8.34;80.12;102390.34;5055321;28;20041;-51
2022/03/28 04:12:44;;;;;;;22.23;7.95;;;;;;;8.26;80.61;102390.59;5053896;28;20045;-50
2022/03/28 04:15:11;;;;;;;21.50;6.95;;;;;;;8.18;81.79;102386.25;5035099;28;20124;-49
2022/03/28 04:17:43;;;;;;;22.23;7.20;;;;;;;8.13;81.30;102385.19;5035349;28;20049;-51
2022/03/28 04:20:13;;;;;;;23.25;7.95;;;;;;;7.96;82.18;102372.13;5035206;28;20069;-50
2022/03/28 04:22:41;;;;;;;25.23;7.35;;;;;;;7.98;82.56;102377.31;5034427;28;20045;-52
2022/03/28 04:25:10;;;;;;;21.60;7.47;;;;;;;8.10;82.95;102381.91;5049947;28;20090;-51
2022/03/28 04:27:38;;;;;;;26.33;7.40;;;;;;;8.14;81.39;102374.16;5037117;28;20045;-50
2022/03/28 04:30:07;;;;;;;23.75;8.05;;;;;;;8.09;81.72;102369.34;5054905;28;20049;-48
2022/03/28 04:32:36;;;;;;;25.90;8.02;;;;;;;8.04;82.49;102373.75;5053738;28;20491;-51
2022/03/28 04:35:05;;;;;;;28.65;8.35;;;;;;;7.95;82.19;102378.56;5033825;28;20049;-49
2022/03/28 04:37:37;;;;;;;27.02;7.85;;;;;;;7.95;82.68;102375.84;5034904;28;20088;-51
2022/03/28 04:40:07;;;;;;;25.85;7.88;;;;;;;7.90;82.58;102378.38;5036780;28;20049;-51
2022/03/28 04:42:35;;;;;;;26.10;8.40;;;;;;;7.82;83.31;102381.34;5034635;28;20072;-49
2022/03/28 04:45:05;;;;;;;19.30;7.10;;;;;;;7.75;83.70;102375.06;5050170;28;20049;-48
2022/03/28 04:47:33;;;;;;;25.45;7.35;;;;;;;7.69;83.63;102372.13;5034989;28;20041;-50
2022/03/28 04:50:01;;;;;;;21.73;7.85;;;;;;;7.65;84.61;102378.22;5034826;28;20041;-50
2022/03/28 04:52:28;;;;;;;24.73;7.60;;;;;;;7.63;84.43;102378.41;5050464;28;20120;-50
2022/03/28 04:54:56;;;;;;;25.00;8.07;;;;;;;7.58;85.14;102375.50;5052991;28;20045;-49
2022/03/28 04:57:24;;;;;;;21.27;7.75;;;;;;;7.61;85.00;102387.81;5054553;28;20037;-50
2022/03/28 04:59:51;;;;;;;24.60;8.50;;;;;;;7.64;84.27;102390.09;5054049;28;20060;-49
2022/03/28 05:02:19;;;;;;;23.65;7.78;;;;;;;7.61;84.11;102385.94;5054192;28;20044;-50
2022/03/28 05:04:47;;;;;;;29.88;8.73;;;;;;;7.56;85.22;102388.44;5050286;28;20087;-48
2022/03/28 05:07:26;;;;;;;25.27;7.80;;;;;;;7.63;84.59;102393.88;5053959;28;20403;-49
2022/03/28 05:09:54;;;;;;;23.42;7.82;;;;;;;7.74;84.10;102384.25;5053043;28;20483;-50
2022/03/28 05:12:22;;;;;;;25.35;7.93;;;;;;;7.83;84.65;102389.25;5053232;28;20049;-50
2022/03/28 05:14:51;;;;;;;27.85;8.50;;;;;;;7.96;84.32;102388.41;5053770;28;20047;-46
2022/03/28 05:17:26;;;;;;;23.73;7.63;;;;;;;8.09;82.46;102388.34;5036660;28;20029;-51
2022/03/28 05:19:54;;;;;;;26.95;8.52;;;;;;;8.11;81.73;102378.13;5034109;28;20048;-49
2022/03/28 05:22:22;;;;;;;28.17;8.75;;;;;;;8.05;81.63;102375.41;5034334;28;20073;-46
2022/03/28 05:24:51;;;;;;;24.02;7.93;;;;;;;7.95;82.13;102370.44;5034181;28;20053;-50
2022/03/28 05:27:19;;;;;;;22.90;8.00;;;;;;;7.92;81.63;102379.00;5034061;28;20038;-50
2022/03/28 05:29:47;;;;;;;23.63;7.43;;;;;;;7.93;82.12;102367.09;5047575;28;20049;-50
2022/03/28 05:32:15;;;;;;;24.90;7.30;;;;;;;7.83;81.42;102364.00;5051757;28;20513;-51
2022/03/28 05:34:44;;;;;;;24.73;8.25;;;;;;;7.67;83.32;102365.25;5051351;28;20033;-48
2022/03/28 05:37:16;;;;;;;23.88;7.57;;;;;;;7.63;83.19;102362.13;5053812;28;20041;-46
2022/03/28 05:39:45;;;;;;;25.92;8.52;;;;;;;7.62;83.70;102365.88;5050729;28;20043;-47
2022/03/28 05:42:14;;;;;;;22.27;7.85;;;;;;;7.70;83.68;102367.56;5034399;28;20380;-50
2022/03/28 05:44:42;;;;;;;24.73;8.27;;;;;;;7.81;83.22;102376.94;5032564;28;20076;-49
2022/03/28 05:47:10;;;;;;;25.98;8.27;;;;;;;7.85;83.16;102370.88;5032449;28;20049;-49
2022/03/28 05:49:38;;;;;;;24.20;8.23;;;;;;;7.85;82.97;102370.88;5033405;28;20076;-49
2022/03/28 05:52:06;;;;;;;26.55;7.78;;;;;;;7.88;82.33;102369.59;5036075;28;20040;-49
2022/03/28 05:54:34;;;;;;;25.38;8.65;;;;;;;7.94;82.38;102370.63;5053305;28;20041;-53
2022/03/28 05:57:02;;;;;;;22.65;7.97;;;;;;;7.82;82.41;102363.16;5053084;28;20045;-50
2022/03/28 05:59:30;;;;;;;25.40;7.85;;;;;;;7.76;82.55;102365.88;5052989;28;20053;-49
2022/03/28 06:01:57;;;;;;;26.25;8.70;;;;;;;7.79;83.19;102365.44;5051389;28;20491;-53
2022/03/28 06:04:25;;;;;;;23.65;8.27;;;;;;;7.81;82.68;102364.19;5036131;28;20442;-50
2022/03/28 06:06:53;;;;;;;25.52;8.93;;;;;;;7.81;82.89;102363.38;5033191;28;20046;-52
2022/03/28 06:09:20;;;;;;;24.48;8.52;;;;;;;7.83;82.93;102372.97;5032045;28;20053;-52
2022/03/28 06:11:48;;;;;;;24.25;8.63;;;;;;;7.88;82.62;102361.47;5051182;28;20041;-54
2022/03/28 06:14:16;;;;;;;31.63;10.05;;;;;;;7.85;82.75;102359.19;5052917;28;20056;-54
2022/03/28 06:16:43;;;;;;;25.30;8.80;;;;;;;7.81;82.68;102363.38;5038143;28;20033;-56
2022/03/28 06:19:11;;;;;;;27.58;9.27;;;;;;;7.76;82.96;102355.84;5052270;28;20052;-55
2022/03/28 06:21:39;;;;;;;27.70;8.55;;;;;;;7.67;83.28;102352.53;5050946;28;20037;-55
2022/03/28 06:24:08;;;;;;;28.25;9.10;;;;;;;7.54;84.25;102357.16;5053046;28;20083;-55
2022/03/28 06:26:36;;;;;;;21.38;8.13;;;;;;;7.35;85.53;102356.09;5051922;28;20048;-53
2022/03/28 06:29:05;;;;;;;23.40;8.65;;;;;;;7.20;86.54;102354.44;4343812;28;10000044;-54
2022/03/28 06:31:33;;;;;;;23.45;8.77;;;;;;;7.09;88.06;102349.63;5033235;28;20045;-55
2022/03/28 06:34:03;;;;;;;27.10;9.35;;;;;;;7.22;87.79;102354.22;5049683;28;20114;-53
2022/03/28 06:36:31;;;;;;;27.88;9.63;;;;;;;7.35;87.53;102354.22;5049712;28;20088;-50
2022/03/28 06:39:00;;;;;;;23.50;8.75;;;;;;;7.48;86.57;102342.56;5048683;28;20049;-54
2022/03/28 06:41:28;;;;;;;22.35;8.63;;;;;;;7.55;86.36;102354.22;5034987;28;20064;-55
2022/03/28 06:43:55;;;;;;;26.70;8.82;;;;;;;7.61;86.81;102353.38;5048129;28;20041;-56
2022/03/28 06:46:23;;;;;;;30.67;9.43;;;;;;;7.67;85.98;102354.41;5052411;28;20049;-56
2022/03/28 06:48:54;;;;;;;21.80;8.23;;;;;;;7.69;85.43;102352.31;5055004;28;20108;-55
2022/03/28 06:51:22;;;;;;;25.60;9.30;;;;;;;7.68;85.64;102343.34;5054131;28;20059;-55
2022/03/28 06:53:49;;;;;;;25.65;9.13;;;;;;;7.69;86.03;102342.28;5019299;28;20041;-54
2022/03/28 06:56:17;;;;;;;29.25;9.50;;;;;;;7.65;86.99;102338.34;5041507;28;20060;-56
2022/03/28 06:58:45;;;;;;;28.60;9.63;;;;;;;7.56;86.83;102336.91;5047810;28;20049;-55
2022/03/28 07:01:12;;;;;;;25.63;9.85;;;;;;;7.60;87.47;102340.88;5034472;28;20761;-54
2022/03/28 07:03:40;;;;;;;20.27;7.63;;;;;;;7.64;87.44;102342.09;5032944;28;20041;-54
2022/03/28 07:06:08;;;;;;;21.55;8.63;;;;;;;7.76;86.57;102344.16;5054909;28;20454;-52
2022/03/28 07:08:36;;;;;;;27.30;9.85;;;;;;;7.87;86.56;102338.09;5056649;28;20051;-51
2022/03/28 07:11:04;;;;;;;27.80;9.80;;;;;;;7.85;85.94;102345.63;5050160;28;20041;-50
2022/03/28 07:13:32;;;;;;;28.58;10.27;;;;;;;7.89;85.91;102338.72;5036210;28;20140;-52
2022/03/28 07:15:59;;;;;;;27.52;11.02;;;;;;;7.92;86.59;102332.88;5041454;28;20047;-51
2022/03/28 07:18:27;;;;;;;23.13;10.27;;;;;;;7.88;86.06;102328.91;5036653;28;20035;-51
2022/03/28 07:20:55;;;;;;;21.95;8.70;;;;;;;7.98;86.20;102331.16;5036815;28;20602;-52
2022/03/28 07:23:28;;;;;;;27.77;11.23;;;;;;;8.08;85.99;102326.13;5035988;28;20046;-53
2022/03/28 07:25:56;;;;;;;23.13;10.55;;;;;;;8.06;86.18;102326.34;5055929;28;20076;-52
2022/03/28 07:28:24;;;;;;;31.20;13.15;;;;;;;8.04;87.08;102325.72;5040600;28;20050;-55
2022/03/28 07:30:51;;;;;;;26.30;11.23;;;;;;;8.03;86.88;102326.78;5036041;28;20049;-52
2022/03/28 07:33:19;;;;;;;24.77;10.05;;;;;;;8.18;86.56;102322.94;5035754;28;20484;-51
2022/03/28 07:35:47;;;;;;;26.40;11.05;;;;;;;8.34;86.59;102319.75;5049131;28;20384;-53
2022/03/28 07:38:15;;;;;;;29.95;11.38;;;;;;;8.51;85.71;102318.25;5044179;28;20052;-51
2022/03/28 07:40:45;;;;;;;31.35;12.75;;;;;;;8.61;85.01;102316.94;5036404;28;20043;-57
2022/03/28 07:43:13;;;;;;;23.38;11.15;;;;;;;8.60;84.93;102312.56;5036282;28;20120;-55
2022/03/28 07:45:41;;;;;;;26.52;10.80;;;;;;;8.61;84.54;102314.22;5034553;28;20049;-56
2022/03/28 07:48:09;;;;;;;25.40;10.52;;;;;;;8.63;84.86;102321.09;5036995;28;20049;-54
2022/03/28 07:50:36;;;;;;;28.33;12.75;;;;;;;8.66;85.14;102307.09;5043034;28;20511;-52
2022/03/28 07:53:05;;;;;;;26.70;11.75;;;;;;;8.68;84.68;102309.56;5035637;28;20041;-51
2022/03/28 07:55:33;;;;;;;27.40;12.77;;;;;;;8.67;85.08;102302.47;5034615;28;20037;-52
2022/03/28 07:58:03;;;;;;;29.60;12.25;;;;;;;8.69;85.23;102301.22;5034489;28;20076;-53
2022/03/28 08:00:31;;;;;;;28.90;13.85;;;;;;;8.77;85.51;102302.81;5047161;28;20041;-51
2022/03/28 08:02:59;;;;;;;32.20;13.88;;;;;;;8.74;86.16;102300.56;5054284;28;20037;-48
2022/03/28 08:05:28;;;;;;;34.33;14.10;;;;;;;8.71;86.14;102304.53;5053931;28;20494;-52
2022/03/28 08:07:56;;;;;;;28.58;14.23;;;;;;;8.77;85.27;102302.81;5049543;28;20079;-50
2022/03/28 08:10:24;;;;;;;30.48;14.82;;;;;;;8.83;85.09;102306.56;5047994;28;20492;-51
2022/03/28 08:12:52;;;;;;;32.92;15.07;;;;;;;8.84;84.80;102298.19;5035153;28;20045;-51
2022/03/28 08:15:22;;;;;;;30.58;14.27;;;;;;;8.87;84.62;102295.00;5035582;28;20038;-48
2022/03/28 08:17:49;;;;;;;31.70;15.25;;;;;;;8.94;84.45;102286.81;5034250;28;20049;-49
2022/03/28 08:20:17;;;;;;;28.98;13.95;;;;;;;8.99;85.49;102286.97;5035259;28;20045;-51
2022/03/28 08:22:49;;;;;;;36.03;15.13;;;;;;;9.05;85.62;102277.13;5034341;28;20048;-49
2022/03/28 08:25:19;;;;;;;32.83;16.02;;;;;;;9.03;85.40;102271.06;5034099;28;20049;-51
2022/03/28 08:27:46;;;;;;;31.27;15.40;;;;;;;9.04;85.65;102268.09;5034479;28;20041;-52
2022/03/28 08:30:14;;;;;;;37.08;15.77;;;;;;;9.11;85.58;102281.66;5041126;28;20124;-52
2022/03/28 08:32:43;;;;;;;31.42;17.08;;;;;;;9.13;85.36;102287.72;5037105;28;20054;-49
2022/03/28 08:35:11;;;;;;;29.27;15.52;;;;;;;9.18;84.89;102283.25;5054018;28;20083;-50
2022/03/28 08:37:39;;;;;;;31.15;15.07;;;;;;;9.24;84.93;102280.72;5054888;28;20040;-49
2022/03/28 08:40:13;;;;;;;32.72;15.63;;;;;;;9.25;84.75;102269.59;5053124;28;20045;-53
2022/03/28 08:42:41;;;;;;;33.20;16.88;;;;;;;9.30;84.30;102277.09;5053810;28;20106;-54
2022/03/28 08:45:11;;;;;;;30.90;17.35;;;;;;;9.35;83.92;102267.19;5053318;28;20091;-50
2022/03/28 08:47:42;;;;;;;29.48;17.08;;;;;;;9.38;84.04;102261.34;5053332;28;20065;-51
2022/03/28 08:50:30;;;;;;;28.73;15.82;;;;;;;9.47;83.88;102258.31;5043982;28;20091;-51
2022/03/28 08:52:58;;;;;;;37.00;17.40;;;;;;;9.53;83.11;102254.69;5033190;28;20483;-52
2022/03/28 08:55:26;;;;;;;38.08;20.98;;;;;;;9.55;82.98;102253.41;5017058;28;20508;-50
2022/03/28 08:57:54;;;;;;;30.63;17.60;;;;;;;9.60;83.39;102250.00;5034529;28;20132;-50
2022/03/28 09:00:21;;;;;;;28.42;16.13;;;;;;;9.66;83.20;102254.53;5035794;28;20069;-50
2022/03/28 09:02:50;;;;;;;33.50;18.88;;;;;;;9.68;83.01;102260.59;5034090;28;20393;-51
2022/03/28 09:05:31;;;;;;;42.53;20.85;;;;;;;9.70;82.79;102263.91;5033210;28;20076;-50
2022/03/28 09:07:59;;;;;;;33.10;18.17;;;;;;;9.75;82.23;102260.53;5034302;28;20041;-50
2022/03/28 09:10:32;;;;;;;37.42;19.30;;;;;;;9.79;82.49;102262.56;5044784;28;20043;-51
2022/03/28 09:13:01;;;;;;;35.17;18.83;;;;;;;9.84;81.81;102263.75;5053862;28;20045;-54
2022/03/28 09:15:49;;;;;;;36.97;18.55;;;;;;;9.89;82.01;102261.19;5036161;28;20041;-52
2022/03/28 09:18:34;;;;;;;32.78;18.67;;;;;;;9.94;81.62;102253.19;5053217;28;20057;-52
2022/03/28 09:21:06;;;;;;;38.72;21.50;;;;;;;9.99;80.71;102247.88;5051371;28;20033;-50
2022/03/28 09:23:49;;;;;;;38.60;21.45;;;;;;;10.07;81.08;102250.28;5054048;28;20036;-52
2022/03/28 09:26:20;;;;;;;39.85;22.17;;;;;;;10.13;80.44;102246.66;5053912;28;20048;-54
2022/03/28 09:29:03;;;;;;;39.03;20.52;;;;;;;10.19;81.02;102240.25;5053551;28;20048;-52
2022/03/28 09:31:39;;;;;;;36.40;19.80;;;;;;;10.24;80.66;102243.13;5033965;28;20403;-56
2022/03/28 09:34:10;;;;;;;33.40;19.10;;;;;;;10.32;80.86;102239.28;5033054;28;20480;-55
2022/03/28 09:36:40;;;;;;;34.92;19.08;;;;;;;10.39;80.46;102233.72;5032520;28;20045;-53
2022/03/28 09:39:17;;;;;;;29.10;15.85;;;;;;;10.54;79.73;102231.41;5033760;28;20084;-53
2022/03/28 09:42:07;;;;;;;31.88;18.08;;;;;;;10.63;79.33;102238.22;5033796;28;20463;-56
2022/03/28 09:44:48;;;;;;;34.65;18.50;;;;;;;10.63;79.00;102238.22;5033948;28;20042;-54
2022/03/28 09:47:18;;;;;;;38.08;20.52;;;;;;;10.69;78.36;102235.59;5033307;28;20045;-55
2022/03/28 09:49:47;;;;;;;35.00;21.88;;;;;;;10.66;77.77;102240.44;5047448;28;20052;-52
2022/03/28 09:52:19;;;;;;;31.58;20.08;;;;;;;10.65;78.22;102227.91;5033458;28;20051;-53
2022/03/28 09:54:52;;;;;;;35.65;22.15;;;;;;;10.70;77.63;102229.06;5033731;28;20048;-49
2022/03/28 09:57:25;;;;;;;38.28;20.25;;;;;;;10.77;77.57;102218.91;5033931;28;20427;-50
2022/03/28 09:59:54;;;;;;;37.08;21.42;;;;;;;10.79;78.04;102224.94;5017156;28;20061;-52
2022/03/28 10:02:25;;;;;;;30.02;17.77;;;;;;;10.87;78.26;102210.94;5032433;28;20465;-52
2022/03/28 10:04:56;;;;;;;45.92;20.30;;;;;;;10.89;77.82;102206.09;5032451;28;20041;-50
2022/03/28 10:07:24;;;;;;;32.47;18.75;;;;;;;10.91;78.00;102211.31;5033458;28;20484;-50
2022/03/28 10:09:53;;;;;;;36.85;19.92;;;;;;;10.98;76.54;102209.31;5046662;28;20507;-55
2022/03/28 10:12:22;;;;;;;31.00;19.02;;;;;;;11.16;75.54;102201.03;5056483;28;20049;-55
2022/03/28 10:14:54;;;;;;;37.40;18.45;;;;;;;11.25;75.01;102198.75;5069041;28;20049;-54
2022/03/28 10:17:24;;;;;;;39.13;18.48;;;;;;;11.28;74.45;102193.66;5062393;28;20051;-53
2022/03/28 10:19:52;;;;;;;41.83;18.83;;;;;;;11.33;75.02;102197.53;5051343;28;20041;-48
2022/03/28 10:22:29;;;;;;;32.67;17.98;;;;;;;11.31;74.02;102197.81;5063074;28;20053;-57
2022/03/28 10:25:01;;;;;;;33.10;17.75;;;;;;;11.28;74.36;102185.47;5063701;28;20491;-55
2022/03/28 10:27:29;;;;;;;34.33;17.98;;;;;;;11.39;75.90;102189.25;5052645;28;20037;-56
2022/03/28 10:30:10;;;;;;;31.30;19.23;;;;;;;11.54;74.58;102182.44;5035479;28;20124;-52
2022/03/28 10:32:38;;;;;;;32.60;18.55;;;;;;;11.58;73.76;102179.00;5047618;28;20072;-55
2022/03/28 10:35:07;;;;;;;31.90;19.80;;;;;;;11.51;73.56;102178.31;5037977;28;20095;-56
2022/03/28 10:37:57;;;;;;;33.25;19.45;;;;;;;11.44;73.04;102175.69;5032560;28;20519;-54
2022/03/28 10:40:31;;;;;;;30.48;18.92;;;;;;;11.41;73.98;102165.28;5032865;28;20069;-57
2022/03/28 10:43:09;;;;;;;29.35;19.35;;;;;;;11.41;73.06;102169.91;5048037;28;20049;-54
2022/03/28 10:45:53;;;;;;;35.50;20.73;;;;;;;11.50;71.76;102165.75;5051714;28;20041;-57
2022/03/28 10:48:44;;;;;;;37.13;20.40;;;;;;;11.53;72.04;102165.25;5047212;28;20052;-51
2022/03/28 10:51:29;;;;;;;34.65;21.20;;;;;;;11.63;71.28;102164.63;5033503;28;20041;-57
2022/03/28 10:54:07;;;;;;;36.70;20.42;;;;;;;11.73;69.92;102162.09;5032178;28;20065;-52
2022/03/28 10:56:45;;;;;;;36.00;20.27;;;;;;;11.76;68.82;102158.03;5064749;28;20502;-51
2022/03/28 10:59:18;;;;;;;32.78;20.80;;;;;;;11.76;68.61;102152.59;5034520;28;20054;-54
2022/03/28 11:01:52;;;;;;;34.85;20.30;;;;;;;11.81;68.27;102148.06;5033274;28;20055;-54
2022/03/28 11:04:24;;;;;;;33.88;20.13;;;;;;;11.87;68.87;102146.28;5031953;28;20057;-51
2022/03/28 11:07:00;;;;;;;30.95;19.30;;;;;;;11.87;68.83;102144.38;5032964;28;20049;-53
2022/03/28 11:09:48;;;;;;;;;;;;;;;11.92;68.59;102140.91;5048929;28;20041;-50
2022/03/28 11:12:25;;;;;;;33.08;20.70;;;;;;;12.04;67.87;102135.41;5048073;28;19928;-53
2022/03/28 11:14:53;;;;;;;;;;;;;;;12.07;68.45;102129.44;5051805;28;20063;-52
2022/03/28 11:17:22;;;;;;;30.00;20.00;;;;;;;12.05;67.88;102137.03;5052462;28;19927;-52
2022/03/28 11:19:54;;;;;;;30.45;18.77;;;;;;;12.01;67.87;102123.06;5049904;28;20116;-51
2022/03/28 11:22:44;;;;;;;30.27;18.98;;;;;;;12.05;67.93;102129.69;5051304;28;20041;-51
2022/03/28 11:25:31;;;;;;;30.45;20.08;;;;;;;12.18;66.58;102120.34;5051576;28;20069;-52
2022/03/28 11:28:14;;;;;;;32.03;19.98;;;;;;;12.21;66.43;102121.75;5045482;28;20037;-51
2022/03/28 11:30:45;;;;;;;27.70;19.52;;;;;;;12.21;65.61;102110.84;5035456;28;20041;-53
2022/03/28 11:33:17;;;;;;;33.08;20.88;;;;;;;12.31;66.92;102103.66;5035254;28;20160;-51
2022/03/28 11:35:57;;;;;;;33.55;20.70;;;;;;;12.35;67.27;102098.50;5036291;28;20045;-52